sensor_id;sensor_type;location;lat;lon;timestamp;temperature;humidity
42989;DHT22;28622;43.716;20.668;2023-02-04T00:01:49;5.70;99.90
42989;DHT22;28622;43.716;20.668;2023-02-04T00:04:15;5.70;99.90
42989;DHT22;28622;43.716;20.668;2023-02-04T00:06:41;5.80;99.90
42989;DHT22;28622;43.716;20.668;2023-02-04T00:09:07;5.80;99.90
42989;DHT22;28622;43.716;20.668;2023-02-04T00:11:32;5.80;99.90
42989;DHT22;28622;43.716;20.668;2023-02-04T00:13:58;5.80;99.90
42989;DHT22;28622;43.716;20.668;2023-02-04T00:16:24;5.80;99.90
42989;DHT22;28622;43.716;20.668;2023-02-04T00:18:50;5.80;99.90
42989;DHT22;28622;43.716;20.668;2023-02-04T00:21:15;5.80;99.90
42989;DHT22;28622;43.716;20.668;2023-02-04T00:23:41;5.80;99.90
42989;DHT22;28622;43.716;20.668;2023-02-04T00:26:07;5.80;99.90
42989;DHT22;28622;43.716;20.668;2023-02-04T00:28:33;5.80;99.90
42989;DHT22;28622;43.716;20.668;2023-02-04T00:30:58;5.80;99.90
42989;DHT22;28622;43.716;20.668;2023-02-04T00:33:24;5.80;99.90
42989;DHT22;28622;43.716;20.668;2023-02-04T00:35:50;5.80;99.90
42989;DHT22;28622;43.716;20.668;2023-02-04T00:38:16;5.80;99.90
42989;DHT22;28622;43.716;20.668;2023-02-04T00:40:42;5.90;99.90
42989;DHT22;28622;43.716;20.668;2023-02-04T00:43:07;5.90;99.90
42989;DHT22;28622;43.716;20.668;2023-02-04T00:45:33;5.90;99.90
42989;DHT22;28622;43.716;20.668;2023-02-04T00:47:59;5.90;99.90
42989;DHT22;28622;43.716;20.668;2023-02-04T00:50:25;5.90;99.90
42989;DHT22;28622;43.716;20.668;2023-02-04T00:52:50;5.90;99.90
42989;DHT22;28622;43.716;20.668;2023-02-04T00:55:17;5.80;99.90
42989;DHT22;28622;43.716;20.668;2023-02-04T00:57:44;5.80;99.90
42989;DHT22;28622;43.716;20.668;2023-02-04T01:00:13;5.70;99.90
42989;DHT22;28622;43.716;20.668;2023-02-04T01:02:39;5.70;99.90
42989;DHT22;28622;43.716;20.668;2023-02-04T01:05:08;5.70;99.90
42989;DHT22;28622;43.716;20.668;2023-02-04T01:07:34;5.70;99.90
42989;DHT22;28622;43.716;20.668;2023-02-04T01:10:00;5.70;99.90
42989;DHT22;28622;43.716;20.668;2023-02-04T01:12:26;5.70;99.90
42989;DHT22;28622;43.716;20.668;2023-02-04T01:14:53;5.70;99.90
42989;DHT22;28622;43.716;20.668;2023-02-04T01:17:20;5.70;99.90
42989;DHT22;28622;43.716;20.668;2023-02-04T01:19:47;5.70;99.90
42989;DHT22;28622;43.716;20.668;2023-02-04T01:22:13;5.70;99.90
42989;DHT22;28622;43.716;20.668;2023-02-04T01:24:38;5.70;99.90
42989;DHT22;28622;43.716;20.668;2023-02-04T01:27:04;5.70;99.90
42989;DHT22;28622;43.716;20.668;2023-02-04T01:29:30;5.60;99.90
42989;DHT22;28622;43.716;20.668;2023-02-04T01:31:56;5.60;99.90
42989;DHT22;28622;43.716;20.668;2023-02-04T01:34:21;5.60;99.90
42989;DHT22;28622;43.716;20.668;2023-02-04T01:36:47;5.60;99.90
42989;DHT22;28622;43.716;20.668;2023-02-04T01:39:13;5.60;99.90
42989;DHT22;28622;43.716;20.668;2023-02-04T01:41:39;5.60;99.90
42989;DHT22;28622;43.716;20.668;2023-02-04T01:44:05;5.50;99.90
42989;DHT22;28622;43.716;20.668;2023-02-04T01:46:31;5.50;99.90
42989;DHT22;28622;43.716;20.668;2023-02-04T01:49:00;5.50;99.90
42989;DHT22;28622;43.716;20.668;2023-02-04T01:51:27;5.50;99.90
42989;DHT22;28622;43.716;20.668;2023-02-04T01:53:55;5.50;99.90
42989;DHT22;28622;43.716;20.668;2023-02-04T01:56:25;5.50;99.90
42989;DHT22;28622;43.716;20.668;2023-02-04T01:58:53;5.40;99.90
42989;DHT22;28622;43.716;20.668;2023-02-04T02:01:37;5.50;99.90
42989;DHT22;28622;43.716;20.668;2023-02-04T02:04:07;5.50;99.90
42989;DHT22;28622;43.716;20.668;2023-02-04T02:06:34;5.50;99.90
42989;DHT22;28622;43.716;20.668;2023-02-04T02:09:01;5.60;99.90
42989;DHT22;28622;43.716;20.668;2023-02-04T02:11:27;5.60;99.90
42989;DHT22;28622;43.716;20.668;2023-02-04T02:13:53;5.60;99.90
42989;DHT22;28622;43.716;20.668;2023-02-04T02:16:19;5.70;99.90
42989;DHT22;28622;43.716;20.668;2023-02-04T02:18:45;5.80;99.90
42989;DHT22;28622;43.716;20.668;2023-02-04T02:21:13;5.80;99.90
42989;DHT22;28622;43.716;20.668;2023-02-04T02:23:49;5.80;99.90
42989;DHT22;28622;43.716;20.668;2023-02-04T02:26:17;5.80;99.90
42989;DHT22;28622;43.716;20.668;2023-02-04T02:28:45;5.80;99.90
42989;DHT22;28622;43.716;20.668;2023-02-04T02:31:16;5.70;99.90
42989;DHT22;28622;43.716;20.668;2023-02-04T02:33:43;5.70;99.90
42989;DHT22;28622;43.716;20.668;2023-02-04T02:36:09;5.60;99.90
42989;DHT22;28622;43.716;20.668;2023-02-04T02:38:35;5.60;99.90
42989;DHT22;28622;43.716;20.668;2023-02-04T02:41:02;5.60;99.90
42989;DHT22;28622;43.716;20.668;2023-02-04T02:43:28;5.60;99.90
42989;DHT22;28622;43.716;20.668;2023-02-04T02:45:57;5.50;99.90
42989;DHT22;28622;43.716;20.668;2023-02-04T02:48:24;5.50;99.90
42989;DHT22;28622;43.716;20.668;2023-02-04T02:50:50;5.50;99.90
42989;DHT22;28622;43.716;20.668;2023-02-04T02:53:18;5.40;99.90
42989;DHT22;28622;43.716;20.668;2023-02-04T02:55:44;5.40;99.90
42989;DHT22;28622;43.716;20.668;2023-02-04T02:58:31;5.40;99.90
42989;DHT22;28622;43.716;20.668;2023-02-04T03:01:04;5.40;99.90
42989;DHT22;28622;43.716;20.668;2023-02-04T03:03:35;5.40;99.90
42989;DHT22;28622;43.716;20.668;2023-02-04T03:06:23;5.40;99.90
42989;DHT22;28622;43.716;20.668;2023-02-04T03:08:52;5.40;99.90
42989;DHT22;28622;43.716;20.668;2023-02-04T03:11:21;5.40;99.90
42989;DHT22;28622;43.716;20.668;2023-02-04T03:13:47;5.40;99.90
42989;DHT22;28622;43.716;20.668;2023-02-04T03:16:14;5.30;99.90
42989;DHT22;28622;43.716;20.668;2023-02-04T03:18:39;5.30;99.90
42989;DHT22;28622;43.716;20.668;2023-02-04T03:21:06;5.30;99.90
42989;DHT22;28622;43.716;20.668;2023-02-04T03:23:33;5.30;99.90
42989;DHT22;28622;43.716;20.668;2023-02-04T03:25:59;5.30;99.90
42989;DHT22;28622;43.716;20.668;2023-02-04T03:28:25;5.30;99.90
42989;DHT22;28622;43.716;20.668;2023-02-04T03:30:51;5.30;99.90
42989;DHT22;28622;43.716;20.668;2023-02-04T03:33:25;5.20;99.90
42989;DHT22;28622;43.716;20.668;2023-02-04T03:35:53;5.20;99.90
42989;DHT22;28622;43.716;20.668;2023-02-04T03:38:19;5.20;99.90
42989;DHT22;28622;43.716;20.668;2023-02-04T03:40:45;5.20;99.90
42989;DHT22;28622;43.716;20.668;2023-02-04T03:43:11;5.20;99.90
42989;DHT22;28622;43.716;20.668;2023-02-04T03:45:36;5.20;99.90
42989;DHT22;28622;43.716;20.668;2023-02-04T03:48:02;5.20;99.90
42989;DHT22;28622;43.716;20.668;2023-02-04T03:50:28;5.20;99.90
42989;DHT22;28622;43.716;20.668;2023-02-04T03:52:53;5.30;99.90
42989;DHT22;28622;43.716;20.668;2023-02-04T03:55:19;5.30;99.90
42989;DHT22;28622;43.716;20.668;2023-02-04T03:57:45;5.30;99.90
42989;DHT22;28622;43.716;20.668;2023-02-04T04:00:11;5.30;99.90
42989;DHT22;28622;43.716;20.668;2023-02-04T04:02:39;5.30;99.90
42989;DHT22;28622;43.716;20.668;2023-02-04T04:05:05;5.30;99.90
42989;DHT22;28622;43.716;20.668;2023-02-04T04:07:31;5.30;99.90
42989;DHT22;28622;43.716;20.668;2023-02-04T04:09:57;5.30;99.90
42989;DHT22;28622;43.716;20.668;2023-02-04T04:12:23;5.40;99.90
42989;DHT22;28622;43.716;20.668;2023-02-04T04:14:48;5.40;99.90
42989;DHT22;28622;43.716;20.668;2023-02-04T04:17:14;5.40;99.90
42989;DHT22;28622;43.716;20.668;2023-02-04T04:19:40;5.40;99.90
42989;DHT22;28622;43.716;20.668;2023-02-04T04:22:05;5.40;99.90
42989;DHT22;28622;43.716;20.668;2023-02-04T04:24:31;5.40;99.90
42989;DHT22;28622;43.716;20.668;2023-02-04T04:26:58;5.40;99.90
42989;DHT22;28622;43.716;20.668;2023-02-04T04:29:23;5.40;99.90
42989;DHT22;28622;43.716;20.668;2023-02-04T04:31:49;5.40;99.90
42989;DHT22;28622;43.716;20.668;2023-02-04T04:34:15;5.40;99.90
42989;DHT22;28622;43.716;20.668;2023-02-04T04:36:40;5.40;99.90
42989;DHT22;28622;43.716;20.668;2023-02-04T04:39:06;5.40;99.90
42989;DHT22;28622;43.716;20.668;2023-02-04T04:41:32;5.40;99.90
42989;DHT22;28622;43.716;20.668;2023-02-04T04:43:57;5.40;99.90
42989;DHT22;28622;43.716;20.668;2023-02-04T04:46:23;5.40;99.90
42989;DHT22;28622;43.716;20.668;2023-02-04T04:48:49;5.40;99.90
42989;DHT22;28622;43.716;20.668;2023-02-04T04:51:15;5.40;99.90
42989;DHT22;28622;43.716;20.668;2023-02-04T04:53:40;5.40;99.90
42989;DHT22;28622;43.716;20.668;2023-02-04T04:56:06;5.40;99.90
42989;DHT22;28622;43.716;20.668;2023-02-04T04:58:32;5.40;99.90
42989;DHT22;28622;43.716;20.668;2023-02-04T05:00:57;5.40;99.90
42989;DHT22;28622;43.716;20.668;2023-02-04T05:03:23;5.40;99.90
42989;DHT22;28622;43.716;20.668;2023-02-04T05:05:49;5.40;99.90
42989;DHT22;28622;43.716;20.668;2023-02-04T05:08:15;5.40;99.90
42989;DHT22;28622;43.716;20.668;2023-02-04T05:10:44;5.40;99.90
42989;DHT22;28622;43.716;20.668;2023-02-04T05:13:10;5.40;99.90
42989;DHT22;28622;43.716;20.668;2023-02-04T05:15:36;5.40;99.90
42989;DHT22;28622;43.716;20.668;2023-02-04T05:18:02;5.40;99.90
42989;DHT22;28622;43.716;20.668;2023-02-04T05:20:28;5.40;99.90
42989;DHT22;28622;43.716;20.668;2023-02-04T05:22:54;5.40;99.90
42989;DHT22;28622;43.716;20.668;2023-02-04T05:25:26;5.40;99.90
42989;DHT22;28622;43.716;20.668;2023-02-04T05:27:52;5.40;99.90
42989;DHT22;28622;43.716;20.668;2023-02-04T05:30:18;5.40;99.90
42989;DHT22;28622;43.716;20.668;2023-02-04T05:32:43;5.40;99.90
42989;DHT22;28622;43.716;20.668;2023-02-04T05:35:09;5.40;99.90
42989;DHT22;28622;43.716;20.668;2023-02-04T05:37:35;5.40;99.90
42989;DHT22;28622;43.716;20.668;2023-02-04T05:40:01;5.40;99.90
42989;DHT22;28622;43.716;20.668;2023-02-04T05:42:27;5.40;99.90
42989;DHT22;28622;43.716;20.668;2023-02-04T05:44:52;5.40;99.90
42989;DHT22;28622;43.716;20.668;2023-02-04T05:47:18;5.40;99.90
42989;DHT22;28622;43.716;20.668;2023-02-04T05:49:45;5.30;99.90
42989;DHT22;28622;43.716;20.668;2023-02-04T05:52:11;5.40;99.90
42989;DHT22;28622;43.716;20.668;2023-02-04T05:54:37;5.30;99.90
42989;DHT22;28622;43.716;20.668;2023-02-04T05:57:02;5.30;99.90
42989;DHT22;28622;43.716;20.668;2023-02-04T05:59:28;5.40;99.90
42989;DHT22;28622;43.716;20.668;2023-02-04T06:01:54;5.30;99.90
42989;DHT22;28622;43.716;20.668;2023-02-04T06:04:20;5.30;99.90
42989;DHT22;28622;43.716;20.668;2023-02-04T06:06:45;5.40;99.90
42989;DHT22;28622;43.716;20.668;2023-02-04T06:09:12;5.30;99.90
42989;DHT22;28622;43.716;20.668;2023-02-04T06:11:38;5.30;99.90
42989;DHT22;28622;43.716;20.668;2023-02-04T06:14:04;5.30;99.90
42989;DHT22;28622;43.716;20.668;2023-02-04T06:16:29;5.30;99.90
42989;DHT22;28622;43.716;20.668;2023-02-04T06:18:55;5.30;99.90
42989;DHT22;28622;43.716;20.668;2023-02-04T06:21:21;5.30;99.90
42989;DHT22;28622;43.716;20.668;2023-02-04T06:23:46;5.30;99.90
42989;DHT22;28622;43.716;20.668;2023-02-04T06:26:12;5.30;99.90
42989;DHT22;28622;43.716;20.668;2023-02-04T06:28:38;5.20;99.90
42989;DHT22;28622;43.716;20.668;2023-02-04T06:31:04;5.20;99.90
42989;DHT22;28622;43.716;20.668;2023-02-04T06:33:30;5.20;99.90
42989;DHT22;28622;43.716;20.668;2023-02-04T06:35:55;5.30;99.90
42989;DHT22;28622;43.716;20.668;2023-02-04T06:38:21;5.20;99.90
42989;DHT22;28622;43.716;20.668;2023-02-04T06:40:47;5.20;99.90
42989;DHT22;28622;43.716;20.668;2023-02-04T06:43:16;5.20;99.90
42989;DHT22;28622;43.716;20.668;2023-02-04T06:45:42;5.20;99.90
42989;DHT22;28622;43.716;20.668;2023-02-04T06:48:07;5.20;99.90
42989;DHT22;28622;43.716;20.668;2023-02-04T06:50:33;5.20;99.90
42989;DHT22;28622;43.716;20.668;2023-02-04T06:52:59;5.20;99.90
42989;DHT22;28622;43.716;20.668;2023-02-04T06:55:25;5.20;99.90
42989;DHT22;28622;43.716;20.668;2023-02-04T06:57:50;5.20;99.90
42989;DHT22;28622;43.716;20.668;2023-02-04T07:00:16;5.20;99.90
42989;DHT22;28622;43.716;20.668;2023-02-04T07:02:42;5.30;99.90
42989;DHT22;28622;43.716;20.668;2023-02-04T07:05:08;5.30;99.90
42989;DHT22;28622;43.716;20.668;2023-02-04T07:07:34;5.30;99.90
42989;DHT22;28622;43.716;20.668;2023-02-04T07:10:00;5.30;99.90
42989;DHT22;28622;43.716;20.668;2023-02-04T07:12:26;5.30;99.90
42989;DHT22;28622;43.716;20.668;2023-02-04T07:14:51;5.40;99.90
42989;DHT22;28622;43.716;20.668;2023-02-04T07:17:17;5.40;99.90
42989;DHT22;28622;43.716;20.668;2023-02-04T07:19:43;5.50;99.90
42989;DHT22;28622;43.716;20.668;2023-02-04T07:22:09;5.40;99.90
42989;DHT22;28622;43.716;20.668;2023-02-04T07:24:34;5.50;99.90
42989;DHT22;28622;43.716;20.668;2023-02-04T07:27:00;5.50;99.90
42989;DHT22;28622;43.716;20.668;2023-02-04T07:29:26;5.50;99.90
42989;DHT22;28622;43.716;20.668;2023-02-04T07:31:52;5.50;99.90
42989;DHT22;28622;43.716;20.668;2023-02-04T07:34:18;5.50;99.90
42989;DHT22;28622;43.716;20.668;2023-02-04T07:36:44;5.50;99.90
42989;DHT22;28622;43.716;20.668;2023-02-04T07:39:10;5.50;99.90
42989;DHT22;28622;43.716;20.668;2023-02-04T07:41:36;5.50;99.90
42989;DHT22;28622;43.716;20.668;2023-02-04T07:44:02;5.50;99.90
42989;DHT22;28622;43.716;20.668;2023-02-04T07:46:28;5.50;99.90
42989;DHT22;28622;43.716;20.668;2023-02-04T07:48:54;5.50;99.90
42989;DHT22;28622;43.716;20.668;2023-02-04T07:51:20;5.50;99.90
42989;DHT22;28622;43.716;20.668;2023-02-04T07:53:45;5.50;99.90
42989;DHT22;28622;43.716;20.668;2023-02-04T07:56:11;5.50;99.90
42989;DHT22;28622;43.716;20.668;2023-02-04T07:58:37;5.60;99.90
42989;DHT22;28622;43.716;20.668;2023-02-04T08:01:03;5.60;99.90
42989;DHT22;28622;43.716;20.668;2023-02-04T08:03:28;5.60;99.90
42989;DHT22;28622;43.716;20.668;2023-02-04T08:05:54;5.70;99.90
42989;DHT22;28622;43.716;20.668;2023-02-04T08:08:20;5.70;99.90
42989;DHT22;28622;43.716;20.668;2023-02-04T08:10:46;5.70;99.90
42989;DHT22;28622;43.716;20.668;2023-02-04T08:13:12;5.70;99.90
42989;DHT22;28622;43.716;20.668;2023-02-04T08:15:38;5.70;99.90
42989;DHT22;28622;43.716;20.668;2023-02-04T08:18:03;5.70;99.90
42989;DHT22;28622;43.716;20.668;2023-02-04T08:20:29;5.70;99.90
42989;DHT22;28622;43.716;20.668;2023-02-04T08:22:55;5.60;99.90
42989;DHT22;28622;43.716;20.668;2023-02-04T08:25:21;5.60;99.90
42989;DHT22;28622;43.716;20.668;2023-02-04T08:27:47;5.60;99.90
42989;DHT22;28622;43.716;20.668;2023-02-04T08:30:13;5.60;99.90
42989;DHT22;28622;43.716;20.668;2023-02-04T08:32:39;5.50;99.90
42989;DHT22;28622;43.716;20.668;2023-02-04T08:35:05;5.50;99.90
42989;DHT22;28622;43.716;20.668;2023-02-04T08:37:31;5.50;99.90
42989;DHT22;28622;43.716;20.668;2023-02-04T08:39:57;5.50;99.90
42989;DHT22;28622;43.716;20.668;2023-02-04T08:42:23;5.50;99.90
42989;DHT22;28622;43.716;20.668;2023-02-04T08:44:49;5.60;99.90
42989;DHT22;28622;43.716;20.668;2023-02-04T08:47:15;5.60;99.90
42989;DHT22;28622;43.716;20.668;2023-02-04T08:49:40;5.60;99.90
42989;DHT22;28622;43.716;20.668;2023-02-04T08:52:06;5.60;99.90
42989;DHT22;28622;43.716;20.668;2023-02-04T08:54:33;5.60;99.90
42989;DHT22;28622;43.716;20.668;2023-02-04T08:56:59;5.50;99.90
42989;DHT22;28622;43.716;20.668;2023-02-04T08:59:25;5.60;99.90
42989;DHT22;28622;43.716;20.668;2023-02-04T09:01:51;5.60;99.90
42989;DHT22;28622;43.716;20.668;2023-02-04T09:04:21;5.60;99.90
42989;DHT22;28622;43.716;20.668;2023-02-04T09:06:48;5.60;99.90
42989;DHT22;28622;43.716;20.668;2023-02-04T09:09:14;5.60;99.90
42989;DHT22;28622;43.716;20.668;2023-02-04T09:11:41;5.60;99.90
42989;DHT22;28622;43.716;20.668;2023-02-04T09:14:07;5.60;99.90
42989;DHT22;28622;43.716;20.668;2023-02-04T09:16:33;5.70;99.90
42989;DHT22;28622;43.716;20.668;2023-02-04T09:18:59;5.70;99.90
42989;DHT22;28622;43.716;20.668;2023-02-04T09:21:27;5.80;99.90
42989;DHT22;28622;43.716;20.668;2023-02-04T09:23:53;5.90;99.90
42989;DHT22;28622;43.716;20.668;2023-02-04T09:26:19;6.10;99.90
42989;DHT22;28622;43.716;20.668;2023-02-04T09:28:45;6.20;99.90
42989;DHT22;28622;43.716;20.668;2023-02-04T09:31:13;6.30;99.90
42989;DHT22;28622;43.716;20.668;2023-02-04T09:33:38;6.40;99.90
42989;DHT22;28622;43.716;20.668;2023-02-04T09:36:04;6.50;99.90
42989;DHT22;28622;43.716;20.668;2023-02-04T09:38:31;6.70;99.90
42989;DHT22;28622;43.716;20.668;2023-02-04T09:41:00;6.70;99.90
42989;DHT22;28622;43.716;20.668;2023-02-04T09:43:29;6.90;99.90
42989;DHT22;28622;43.716;20.668;2023-02-04T09:45:56;7.10;99.90
42989;DHT22;28622;43.716;20.668;2023-02-04T09:48:23;7.50;99.90
42989;DHT22;28622;43.716;20.668;2023-02-04T09:50:50;7.80;99.90
42989;DHT22;28622;43.716;20.668;2023-02-04T09:53:20;8.00;99.90
42989;DHT22;28622;43.716;20.668;2023-02-04T09:55:49;8.10;99.90
42989;DHT22;28622;43.716;20.668;2023-02-04T09:58:20;8.00;99.90
42989;DHT22;28622;43.716;20.668;2023-02-04T10:00:58;8.30;99.90
42989;DHT22;28622;43.716;20.668;2023-02-04T10:03:24;8.50;99.90
42989;DHT22;28622;43.716;20.668;2023-02-04T10:05:50;8.30;99.90
42989;DHT22;28622;43.716;20.668;2023-02-04T10:08:18;8.20;99.90
42989;DHT22;28622;43.716;20.668;2023-02-04T10:10:46;8.50;99.90
42989;DHT22;28622;43.716;20.668;2023-02-04T10:13:18;8.90;99.90
42989;DHT22;28622;43.716;20.668;2023-02-04T10:15:46;9.00;99.90
42989;DHT22;28622;43.716;20.668;2023-02-04T10:18:22;9.00;99.90
42989;DHT22;28622;43.716;20.668;2023-02-04T10:20:50;8.70;99.90
42989;DHT22;28622;43.716;20.668;2023-02-04T10:23:17;8.50;99.90
42989;DHT22;28622;43.716;20.668;2023-02-04T10:25:43;8.30;99.90
42989;DHT22;28622;43.716;20.668;2023-02-04T10:28:08;8.20;99.90
42989;DHT22;28622;43.716;20.668;2023-02-04T10:30:42;8.10;99.90
42989;DHT22;28622;43.716;20.668;2023-02-04T10:33:23;8.30;99.90
42989;DHT22;28622;43.716;20.668;2023-02-04T10:35:51;8.80;99.90
42989;DHT22;28622;43.716;20.668;2023-02-04T10:38:18;9.70;99.90
42989;DHT22;28622;43.716;20.668;2023-02-04T10:40:44;9.70;99.90
42989;DHT22;28622;43.716;20.668;2023-02-04T10:43:20;9.50;99.90
42989;DHT22;28622;43.716;20.668;2023-02-04T10:45:58;9.10;99.90
42989;DHT22;28622;43.716;20.668;2023-02-04T10:48:24;7.70;99.90
42989;DHT22;28622;43.716;20.668;2023-02-04T10:50:50;5.90;99.90
42989;DHT22;28622;43.716;20.668;2023-02-04T10:53:19;5.20;99.90
42989;DHT22;28622;43.716;20.668;2023-02-04T10:56:10;5.10;99.90
42989;DHT22;28622;43.716;20.668;2023-02-04T10:58:38;4.30;99.90
42989;DHT22;28622;43.716;20.668;2023-02-04T11:01:11;3.90;99.90
42989;DHT22;28622;43.716;20.668;2023-02-04T11:03:39;3.90;99.90
42989;DHT22;28622;43.716;20.668;2023-02-04T11:06:13;4.10;99.90
42989;DHT22;28622;43.716;20.668;2023-02-04T11:08:40;4.30;99.90
42989;DHT22;28622;43.716;20.668;2023-02-04T11:11:24;4.30;99.90
42989;DHT22;28622;43.716;20.668;2023-02-04T11:16:30;4.60;99.90
42989;DHT22;28622;43.716;20.668;2023-02-04T11:19:05;4.70;99.90
42989;DHT22;28622;43.716;20.668;2023-02-04T11:26:39;5.00;99.90
42989;DHT22;28622;43.716;20.668;2023-02-04T11:34:10;5.00;99.90
42989;DHT22;28622;43.716;20.668;2023-02-04T11:39:37;5.10;99.90
42989;DHT22;28622;43.716;20.668;2023-02-04T11:42:04;5.20;99.90
42989;DHT22;28622;43.716;20.668;2023-02-04T11:44:31;5.30;99.90
42989;DHT22;28622;43.716;20.668;2023-02-04T11:46:58;5.40;99.90
42989;DHT22;28622;43.716;20.668;2023-02-04T11:49:26;5.40;99.90
42989;DHT22;28622;43.716;20.668;2023-02-04T11:52:03;5.40;99.90
42989;DHT22;28622;43.716;20.668;2023-02-04T11:54:33;5.40;99.90
42989;DHT22;28622;43.716;20.668;2023-02-04T11:56:59;5.40;99.90
42989;DHT22;28622;43.716;20.668;2023-02-04T11:59:26;5.40;99.90
42989;DHT22;28622;43.716;20.668;2023-02-04T12:02:03;5.40;99.90
42989;DHT22;28622;43.716;20.668;2023-02-04T12:04:29;5.40;99.90
42989;DHT22;28622;43.716;20.668;2023-02-04T12:07:02;5.50;99.90
42989;DHT22;28622;43.716;20.668;2023-02-04T12:09:30;5.50;99.90
42989;DHT22;28622;43.716;20.668;2023-02-04T12:11:58;5.50;99.90
42989;DHT22;28622;43.716;20.668;2023-02-04T12:14:36;5.50;99.90
42989;DHT22;28622;43.716;20.668;2023-02-04T12:17:18;5.50;99.90
42989;DHT22;28622;43.716;20.668;2023-02-04T12:19:44;5.50;99.90
42989;DHT22;28622;43.716;20.668;2023-02-04T12:22:10;5.60;99.90
42989;DHT22;28622;43.716;20.668;2023-02-04T12:24:36;5.50;99.90
42989;DHT22;28622;43.716;20.668;2023-02-04T12:27:02;5.40;99.90
42989;DHT22;28622;43.716;20.668;2023-02-04T12:29:27;5.40;99.90
42989;DHT22;28622;43.716;20.668;2023-02-04T12:31:53;5.30;99.90
42989;DHT22;28622;43.716;20.668;2023-02-04T12:34:19;5.10;99.90
42989;DHT22;28622;43.716;20.668;2023-02-04T12:36:45;5.10;99.90
42989;DHT22;28622;43.716;20.668;2023-02-04T12:39:11;5.00;99.90
42989;DHT22;28622;43.716;20.668;2023-02-04T12:41:37;5.00;99.90
42989;DHT22;28622;43.716;20.668;2023-02-04T12:44:02;4.90;99.90
42989;DHT22;28622;43.716;20.668;2023-02-04T12:46:28;4.70;99.90
42989;DHT22;28622;43.716;20.668;2023-02-04T12:48:54;4.50;99.90
42989;DHT22;28622;43.716;20.668;2023-02-04T12:51:21;4.30;99.90
42989;DHT22;28622;43.716;20.668;2023-02-04T12:53:47;4.30;99.90
42989;DHT22;28622;43.716;20.668;2023-02-04T12:56:13;4.30;99.90
42989;DHT22;28622;43.716;20.668;2023-02-04T12:58:39;4.30;99.90
42989;DHT22;28622;43.716;20.668;2023-02-04T13:01:05;4.10;99.90
42989;DHT22;28622;43.716;20.668;2023-02-04T13:03:32;4.10;99.90
42989;DHT22;28622;43.716;20.668;2023-02-04T13:05:58;3.90;99.90
42989;DHT22;28622;43.716;20.668;2023-02-04T13:08:23;3.80;99.90
42989;DHT22;28622;43.716;20.668;2023-02-04T13:10:49;3.80;99.90
42989;DHT22;28622;43.716;20.668;2023-02-04T13:13:20;3.70;99.90
42989;DHT22;28622;43.716;20.668;2023-02-04T13:15:47;3.80;99.90
42989;DHT22;28622;43.716;20.668;2023-02-04T13:18:13;3.70;99.90
42989;DHT22;28622;43.716;20.668;2023-02-04T13:20:39;3.80;99.90
42989;DHT22;28622;43.716;20.668;2023-02-04T13:23:05;3.70;99.90
42989;DHT22;28622;43.716;20.668;2023-02-04T13:25:31;3.70;99.90
42989;DHT22;28622;43.716;20.668;2023-02-04T13:27:57;3.70;99.90
42989;DHT22;28622;43.716;20.668;2023-02-04T13:30:22;3.70;99.90
42989;DHT22;28622;43.716;20.668;2023-02-04T13:32:48;3.70;99.90
42989;DHT22;28622;43.716;20.668;2023-02-04T13:35:14;3.70;99.90
42989;DHT22;28622;43.716;20.668;2023-02-04T13:37:40;3.80;99.90
42989;DHT22;28622;43.716;20.668;2023-02-04T13:40:06;3.70;99.90
42989;DHT22;28622;43.716;20.668;2023-02-04T13:42:32;3.70;99.90
42989;DHT22;28622;43.716;20.668;2023-02-04T13:44:58;3.70;99.90
42989;DHT22;28622;43.716;20.668;2023-02-04T13:47:24;3.70;99.90
42989;DHT22;28622;43.716;20.668;2023-02-04T13:49:49;3.70;99.90
42989;DHT22;28622;43.716;20.668;2023-02-04T13:52:15;3.70;99.90
42989;DHT22;28622;43.716;20.668;2023-02-04T13:54:43;3.70;99.90
42989;DHT22;28622;43.716;20.668;2023-02-04T13:57:09;3.70;99.90
42989;DHT22;28622;43.716;20.668;2023-02-04T13:59:35;3.70;99.90
42989;DHT22;28622;43.716;20.668;2023-02-04T14:02:01;3.70;99.90
42989;DHT22;28622;43.716;20.668;2023-02-04T14:04:27;3.80;99.90
42989;DHT22;28622;43.716;20.668;2023-02-04T14:06:53;3.70;99.90
42989;DHT22;28622;43.716;20.668;2023-02-04T14:09:20;3.60;99.90
42989;DHT22;28622;43.716;20.668;2023-02-04T14:11:46;3.60;99.90
42989;DHT22;28622;43.716;20.668;2023-02-04T14:14:12;3.50;99.90
42989;DHT22;28622;43.716;20.668;2023-02-04T14:16:38;3.50;99.90
42989;DHT22;28622;43.716;20.668;2023-02-04T14:19:04;3.40;99.90
42989;DHT22;28622;43.716;20.668;2023-02-04T14:21:30;3.30;99.90
42989;DHT22;28622;43.716;20.668;2023-02-04T14:23:56;3.30;99.90
42989;DHT22;28622;43.716;20.668;2023-02-04T14:26:22;3.20;99.90
42989;DHT22;28622;43.716;20.668;2023-02-04T14:28:48;3.20;99.90
42989;DHT22;28622;43.716;20.668;2023-02-04T14:31:14;3.20;99.90
42989;DHT22;28622;43.716;20.668;2023-02-04T14:33:39;3.10;99.90
42989;DHT22;28622;43.716;20.668;2023-02-04T14:36:05;3.10;99.90
42989;DHT22;28622;43.716;20.668;2023-02-04T14:38:31;3.00;99.90
42989;DHT22;28622;43.716;20.668;2023-02-04T14:40:59;2.90;99.90
42989;DHT22;28622;43.716;20.668;2023-02-04T14:43:25;2.90;99.90
42989;DHT22;28622;43.716;20.668;2023-02-04T14:45:51;2.90;99.90
42989;DHT22;28622;43.716;20.668;2023-02-04T14:48:17;2.80;99.90
42989;DHT22;28622;43.716;20.668;2023-02-04T14:50:43;2.80;99.90
42989;DHT22;28622;43.716;20.668;2023-02-04T14:53:09;2.80;99.90
42989;DHT22;28622;43.716;20.668;2023-02-04T14:55:34;2.80;99.90
42989;DHT22;28622;43.716;20.668;2023-02-04T14:58:00;2.80;99.90
42989;DHT22;28622;43.716;20.668;2023-02-04T15:00:26;2.80;99.90
42989;DHT22;28622;43.716;20.668;2023-02-04T15:02:52;2.70;99.90
42989;DHT22;28622;43.716;20.668;2023-02-04T15:05:18;2.70;99.90
42989;DHT22;28622;43.716;20.668;2023-02-04T15:07:44;2.70;99.90
42989;DHT22;28622;43.716;20.668;2023-02-04T15:10:10;2.60;99.90
42989;DHT22;28622;43.716;20.668;2023-02-04T15:12:37;2.50;99.90
42989;DHT22;28622;43.716;20.668;2023-02-04T15:15:03;2.40;99.90
42989;DHT22;28622;43.716;20.668;2023-02-04T15:17:29;2.40;99.90
42989;DHT22;28622;43.716;20.668;2023-02-04T15:19:55;2.30;99.90
42989;DHT22;28622;43.716;20.668;2023-02-04T15:22:21;2.30;99.90
42989;DHT22;28622;43.716;20.668;2023-02-04T15:24:47;2.30;99.90
42989;DHT22;28622;43.716;20.668;2023-02-04T15:27:13;2.30;99.90
42989;DHT22;28622;43.716;20.668;2023-02-04T15:29:38;2.30;99.90
42989;DHT22;28622;43.716;20.668;2023-02-04T15:32:04;2.20;99.90
42989;DHT22;28622;43.716;20.668;2023-02-04T15:34:30;2.10;99.90
42989;DHT22;28622;43.716;20.668;2023-02-04T15:36:56;2.10;99.90
42989;DHT22;28622;43.716;20.668;2023-02-04T15:39:22;2.10;99.90
42989;DHT22;28622;43.716;20.668;2023-02-04T15:41:48;2.00;99.90
42989;DHT22;28622;43.716;20.668;2023-02-04T15:44:16;2.00;99.90